Edson, Canada
Current Conditions -  °F | °C
As of 11:00 AM on Saturday 25 Oct 2014 (Local Time) from CYET Reporting Station
Clear Clear  
Wind Chill: 26°   Ceiling: Unl
Heat Index: 32°   Visibility: 9mi
Dew Point: 23°   Wind: 6mph
Humidity: 69%   Direction: 70°ENE
Pressure: 29.84"   Gusts: NA
Location:  53.58°N, 116.43°W
Report Text: CYET 251700Z AUTO 07005KT 9SM CLR M00/M05 A2984 RMK SLP144
Loading
Personal Weather Stations






























Interactive Weather Map
Tropical Storm Tracking
New forecast layout! Learn more

10-Day Weather Forecast

Advertisements
Track Severe Weather on mobile